Map

Track Data

SID SEASON NUMBER BASIN SUBBASIN NAME ISO_TIME NATURE LAT LON WMO_WIND WMO_PRES WMO_AGENCY TRACK_TYPE DIST2LAND LANDFALL IFLAG USA_AGENCY USA_ATCF_ID USA_LAT USA_LON USA_RECORD USA_STATUS USA_WIND USA_PRES USA_SSHS USA_R34_NE USA_R34_SE USA_R34_SW USA_R34_NW USA_R50_NE USA_R50_SE USA_R50_SW USA_R50_NW USA_R64_NE USA_R64_SE USA_R64_SW USA_R64_NW USA_POCI USA_ROCI USA_RMW USA_EYE TOKYO_LAT TOKYO_LON TOKYO_GRADE TOKYO_WIND TOKYO_PRES TOKYO_R50_DIR TOKYO_R50_LONG TOKYO_R50_SHORT TOKYO_R30_DIR TOKYO_R30_LONG TOKYO_R30_SHORT TOKYO_LAND CMA_LAT CMA_LON CMA_CAT CMA_WIND CMA_PRES HKO_LAT HKO_LON HKO_CAT HKO_WIND HKO_PRES NEWDELHI_LAT NEWDELHI_LON NEWDELHI_GRADE NEWDELHI_WIND NEWDELHI_PRES NEWDELHI_CI NEWDELHI_DP NEWDELHI_POCI REUNION_LAT REUNION_LON REUNION_TYPE REUNION_WIND REUNION_PRES REUNION_TNUM REUNION_CI REUNION_RMW REUNION_R34_NE REUNION_R34_SE REUNION_R34_SW REUNION_R34_NW REUNION_R50_NE REUNION_R50_SE REUNION_R50_SW REUNION_R50_NW REUNION_R64_NE REUNION_R64_SE REUNION_R64_SW REUNION_R64_NW BOM_LAT BOM_LON BOM_TYPE BOM_WIND BOM_PRES BOM_TNUM BOM_CI BOM_RMW BOM_R34_NE BOM_R34_SE BOM_R34_SW BOM_R34_NW BOM_R50_NE BOM_R50_SE BOM_R50_SW BOM_R50_NW BOM_R64_NE BOM_R64_SE BOM_R64_SW BOM_R64_NW BOM_ROCI BOM_POCI BOM_EYE BOM_POS_METHOD BOM_PRES_METHOD NADI_LAT NADI_LON NADI_CAT NADI_WIND NADI_PRES WELLINGTON_LAT WELLINGTON_LON WELLINGTON_WIND WELLINGTON_PRES DS824_LAT DS824_LON DS824_STAGE DS824_WIND DS824_PRES TD9636_LAT TD9636_LON TD9636_STAGE TD9636_WIND TD9636_PRES TD9635_LAT TD9635_LON TD9635_WIND TD9635_PRES TD9635_ROCI NEUMANN_LAT NEUMANN_LON NEUMANN_CLASS NEUMANN_WIND NEUMANN_PRES MLC_LAT MLC_LON MLC_CLASS MLC_WIND MLC_PRES USA_GUST BOM_GUST BOM_GUST_PER REUNION_GUST REUNION_GUST_PER USA_SEAHGT USA_SEARAD_NE USA_SEARAD_SE USA_SEARAD_SW USA_SEARAD_NW STORM_SPEED STORM_DIR
1980352S13059 1981 110 SI MM DIANA 1980-12-17 00:00:00 TS -12.9000 59.1500 reunion main 821 808 O____O___O__O_ jtwc_sh SH051981 -13.0000 59.0000 -1 -12.8000 59.3000 99 9.90000 -13.0000 59.0000 TC 25 -12.8000 59.3000 TC 35 3 189
1980352S13059 1981 110 SI MM DIANA 1980-12-17 03:00:00 TS -13.0512 59.1312 main 797 797 P____P___P__P_ SH051981 -13.1550 59.0825 -1 -12.9475 59.1798 99 -13.1550 59.0825 TC 25 -12.9475 59.1798 TC 35 3 192
1980352S13059 1981 110 SI MM DIANA 1980-12-17 04:00:00 TS -13.1014 59.1053 main 797 784 P____P___PO_P_ SH051981 -13.2050 59.0988 -1 -13.0148 59.1295 99 -13.2050 59.0988 TC 25 -13.0000 59.0000 1 -13.0148 59.1295 TC 35 4 205
1980352S13059 1981 110 SI MM DIANA 1980-12-17 06:00:00 TS -13.2376 59.0429 reunion main 784 749 O____O___OP_O_ jtwc_sh SH051981 -13.3000 59.1000 -1 -13.2000 59.0000 3 9.90000 -13.3000 59.1000 TC 25 -13.1381 58.9861 1 -13.2000 59.0000 TC 35 5 210
1980352S13059 1981 110 SI MM DIANA 1980-12-17 09:00:00 TS -13.4951 58.8738 main 749 724 P____P___PP_P_ SH051981 -13.4350 59.0024 -1 -13.6075 58.7227 3 -13.4350 59.0024 TC 25 -13.3556 58.9337 1 -13.6075 58.7227 TC 35 7 217
1980352S13059 1981 110 SI MM DIANA 1980-12-17 12:00:00 TS -13.7600 58.6400 reunion main 711 686 O____O___OO_O_ jtwc_sh SH051981 -13.6000 58.8000 -1 -14.0000 58.4000 99 9.90000 -13.6000 58.8000 TC 25 -13.6000 58.8000 1 -14.0000 58.4000 TC 35 7 224
1980352S13059 1981 110 SI MM DIANA 1980-12-17 15:00:00 TS -13.9993 58.3654 main 686 661 P____P___PP_P_ SH051981 -13.8425 58.5300 -1 -14.2174 58.1074 99 -13.8425 58.5300 TC 25 -13.8767 58.5521 1 -14.2174 58.1074 TC 35 7 233
1980352S13059 1981 110 SI MM DIANA 1980-12-17 18:00:00 TS -14.1900 58.0442 reunion main 660 649 O____O___OP_O_ jtwc_sh SH051981 -14.1000 58.2000 -1 -14.3000 57.8000 99 9.90000 -14.1000 58.2000 TC 25 -14.1498 58.2210 1 -14.3000 57.8000 TC 35 7 243
1980352S13059 1981 110 SI MM DIANA 1980-12-17 21:00:00 TS -14.3306 57.6909 main 649 637 P____P___PP_P_ SH051981 -14.3525 57.8501 -1 -14.2875 57.4499 99 -14.3525 57.8501 TC 25 -14.3729 57.8543 1 -14.2875 57.4499 TC 35 7 254
1980352S13059 1981 110 SI MM DIANA 1980-12-18 00:00:00 TS -14.3800 57.3400 reunion main 638 638 O____O___OO_O_ jtwc_sh SH051981 -14.5000 57.5000 -1 -14.2000 57.1000 99 9.90000 -14.5000 57.5000 TC 25 -14.5000 57.5000 1 -14.2000 57.1000 TC 35 7 271
1980352S13059 1981 110 SI MM DIANA 1980-12-18 03:00:00 TS -14.3137 57.0174 main 651 651 P____P___PP_P_ SH051981 -14.4525 57.1773 -1 -14.1000 56.7625 99 -14.4525 57.1773 TC 25 -14.4634 57.2074 1 -14.1000 56.7625 TC 32 6 289
1980352S13059 1981 110 SI MM DIANA 1980-12-18 06:00:00 TS -14.1865 56.7478 reunion main 665 665 O____O___OP_O_ jtwc_sh SH051981 -14.3000 56.9000 -1 -14.0000 56.5000 2 9.90000 -14.3000 56.9000 TC 25 -14.3324 56.9391 1 -14.0000 56.5000 TC 30 5 299
1980352S13059 1981 110 SI MM DIANA 1980-12-18 09:00:00 TS -14.0660 56.5563 main 667 649 P____P___PP_P_ SH051981 -14.1425 56.6700 -1 -13.9424 56.3700 2 -14.1425 56.6700 TC 25 -14.1603 56.7013 1 -13.9424 56.3700 TC 30 4 305
1980352S13059 1981 110 SI MM DIANA 1980-12-18 12:00:00 TS -13.9600 56.4200 reunion main 649 641 O____O___OO_O_ jtwc_sh SH051981 -14.0000 56.5000 -1 -13.9000 56.3000 99 9.90000 -14.0000 56.5000 TC 25 -14.0000 56.5000 1 -13.9000 56.3000 TC 30 3 305
1980352S13059 1981 110 SI MM DIANA 1980-12-18 15:00:00 TS -13.8950 56.3049 main 641 630 P____P___PP_P_ SH051981 -13.9350 56.3926 -1 -13.8425 56.2000 99 -13.9350 56.3926 TC 25 -13.9202 56.3392 1 -13.8425 56.2000 TC 30 2 297
1980352S13059 1981 110 SI MM DIANA 1980-12-18 18:00:00 TS -13.8525 56.2025 reunion main 630 623 O____O___OP_O_ jtwc_sh SH051981 -13.9000 56.3000 -1 -13.8000 56.1000 99 9.90000 -13.9000 56.3000 TC 25 -13.8623 56.2127 1 -13.8000 56.1000 TC 30 2 290
1980352S13059 1981 110 SI MM DIANA 1980-12-18 21:00:00 TS -13.8187 56.0870 main 623 612 P____P___PP_P_ SH051981 -13.8425 56.1500 -1 -13.7925 56.0150 99 -13.8425 56.1500 TC 25 -13.8233 56.1048 1 -13.7925 56.0150 TC 30 2 283
1980352S13059 1981 110 SI MM DIANA 1980-12-19 00:00:00 TS -13.8000 55.9667 reunion main 612 602 O____O___OO_O_ jtwc_sh SH051981 -13.8000 56.0000 -1 -13.8000 55.9000 99 9.90000 -13.8000 56.0000 TC 25 -13.8000 56.0000 1 -13.8000 55.9000 TC 30 2 276
1980352S13059 1981 110 SI MM DIANA 1980-12-19 03:00:00 TS -13.7942 55.8515 main 602 581 P____P___PP_P_ SH051981 -13.7925 55.9000 -1 -13.8026 55.7200 99 -13.7925 55.9000 TC 25 -13.7892 55.8859 1 -13.8026 55.7200 TC 30 2 271
1980352S13059 1981 110 SI MM DIANA 1980-12-19 06:00:00 TS -13.7966 55.7352 reunion main 581 581 O____O___OP_O_ jtwc_sh SH051981 -13.8000 55.8000 -1 -13.8000 55.5000 2 9.90000 -13.8000 55.8000 TC 25 -13.7876 55.7625 1 -13.8000 55.5000 TC 30 2 269
1980352S13059 1981 110 SI MM DIANA 1980-12-19 09:00:00 TS -13.7991 55.6526 main 581 560 P________PP___ SH051981 -13.8025 55.6625 -1 2 -13.8025 55.6625 TC 25 -13.7923 55.6328 1 TC 2 269
1980352S13059 1981 110 SI MM DIANA 1980-12-19 12:00:00 TS -13.8000 55.5000 main 560 O________OO___ jtwc_sh SH051981 -13.8000 55.5000 -1 -13.8000 55.5000 TC 25 -13.8000 55.5000 1 3 270

About IBTrACS Database

This database is a web-friendly format of International Best Track Archive for Climate Stewardship (IBTrACS), a global best track data archive curated by NOAA dating back to 1842.

Updated: 2021-12-03